createdAt,value
2019-05-04T00:00:51.729Z,99.90
2019-05-04T00:03:21.200Z,99.90
2019-05-04T00:05:54.731Z,99.90
2019-05-04T00:08:25.038Z,99.90
2019-05-04T00:10:57.580Z,99.90
2019-05-04T00:13:26.968Z,99.90
2019-05-04T00:15:56.394Z,99.90
2019-05-04T00:18:25.843Z,99.90
2019-05-04T00:20:56.833Z,99.90
2019-05-04T00:23:26.881Z,99.90
2019-05-04T00:25:57.553Z,99.90
2019-05-04T00:28:26.978Z,99.90
2019-05-04T00:30:57.810Z,99.90
2019-05-04T00:33:33.385Z,99.90
2019-05-04T00:36:11.104Z,99.90
2019-05-04T00:38:42.390Z,99.90
2019-05-04T00:41:11.825Z,99.90
2019-05-04T00:43:41.591Z,99.90
2019-05-04T00:46:11.000Z,99.90
2019-05-04T00:48:40.381Z,99.90
2019-05-04T00:51:09.822Z,99.90
2019-05-04T00:53:40.513Z,99.90
2019-05-04T00:56:18.277Z,99.90
2019-05-04T00:58:55.438Z,99.90
2019-05-04T01:01:32.645Z,99.90
2019-05-04T01:04:02.029Z,99.90
2019-05-04T01:06:31.411Z,99.90
2019-05-04T01:09:00.829Z,99.90
2019-05-04T01:11:30.234Z,99.90
2019-05-04T01:14:00.314Z,99.90
2019-05-04T01:16:31.104Z,99.90
2019-05-04T01:19:00.491Z,99.90
2019-05-04T01:21:34.612Z,99.90
2019-05-04T01:24:04.453Z,99.90
2019-05-04T01:26:34.623Z,99.90
2019-05-04T01:29:04.724Z,99.90
2019-05-04T01:31:35.348Z,99.90
2019-05-04T01:34:11.248Z,99.90
2019-05-04T01:36:47.544Z,99.90
2019-05-04T01:39:31.844Z,99.90
2019-05-04T01:42:01.229Z,99.90
2019-05-04T01:44:31.591Z,99.90
2019-05-04T01:47:00.953Z,99.90
2019-05-04T01:49:30.334Z,99.90
2019-05-04T01:51:59.741Z,99.90
2019-05-04T01:54:29.224Z,99.90
2019-05-04T01:57:05.164Z,99.90
2019-05-04T01:59:41.580Z,99.90
2019-05-04T02:02:11.477Z,99.90
2019-05-04T02:04:40.852Z,99.90
2019-05-04T02:07:11.242Z,99.90
2019-05-04T02:09:44.464Z,99.90
2019-05-04T02:12:16.719Z,99.90
2019-05-04T02:14:46.404Z,99.90
2019-05-04T02:17:17.619Z,99.90
2019-05-04T02:19:46.928Z,99.90
2019-05-04T02:22:27.511Z,99.90
2019-05-04T02:25:04.960Z,99.90
2019-05-04T02:27:40.887Z,99.90
2019-05-04T02:30:17.936Z,99.90
2019-05-04T02:32:48.521Z,99.90
2019-05-04T02:35:20.279Z,99.90
2019-05-04T02:38:04.328Z,99.90
2019-05-04T02:40:37.662Z,99.90
2019-05-04T02:43:05.497Z,99.90
2019-05-04T02:45:36.075Z,99.90
2019-05-04T02:48:27.461Z,99.90
2019-05-04T02:51:05.655Z,99.90
2019-05-04T02:53:36.526Z,99.90
2019-05-04T02:56:05.883Z,99.90
2019-05-04T02:58:38.580Z,99.90
2019-05-04T03:01:15.687Z,99.90
2019-05-04T03:03:45.714Z,99.90
2019-05-04T03:06:17.725Z,99.90
2019-05-04T03:08:48.825Z,99.90
2019-05-04T03:11:20.917Z,99.90
2019-05-04T03:14:10.423Z,99.90
2019-05-04T03:16:46.282Z,99.90
2019-05-04T03:19:38.360Z,99.90
2019-05-04T03:22:21.471Z,99.90
2019-05-04T03:24:52.237Z,99.90
2019-05-04T03:27:25.179Z,99.90
2019-05-04T03:29:58.293Z,99.90
2019-05-04T03:32:29.659Z,99.90
2019-05-04T03:35:18.390Z,99.90
2019-05-04T03:37:31.970Z,99.90
2019-05-04T03:40:01.970Z,99.90
2019-05-04T03:42:31.931Z,99.90
2019-05-04T03:45:09.239Z,99.90
2019-05-04T03:47:47.767Z,99.90
2019-05-04T03:50:26.196Z,99.90
2019-05-04T03:52:57.141Z,99.90
2019-05-04T03:55:26.589Z,99.90
2019-05-04T03:57:58.290Z,99.90
2019-05-04T04:00:42.980Z,99.90
2019-05-04T04:03:12.357Z,99.90
2019-05-04T04:05:41.733Z,99.90
2019-05-04T04:08:11.521Z,99.90
2019-05-04T04:10:40.902Z,99.90
2019-05-04T04:13:10.281Z,99.90
2019-05-04T04:15:39.701Z,99.90
2019-05-04T04:18:25.592Z,99.90
2019-05-04T04:21:07.660Z,99.90
2019-05-04T04:23:58.080Z,99.90
2019-05-04T04:26:46.318Z,99.90
2019-05-04T04:29:41.163Z,99.90
2019-05-04T04:32:10.369Z,99.90
2019-05-04T04:34:40.389Z,99.90
2019-05-04T04:37:15.780Z,99.90
2019-05-04T04:39:46.337Z,99.90
2019-05-04T04:42:20.604Z,99.90
2019-05-04T04:44:50.906Z,99.90
2019-05-04T04:47:20.784Z,99.90
2019-05-04T04:49:50.292Z,99.90
2019-05-04T04:52:19.674Z,99.90
2019-05-04T04:54:50.910Z,99.90
2019-05-04T04:57:37.034Z,99.90
2019-05-04T05:00:30.475Z,99.90
2019-05-04T05:02:59.854Z,99.90
2019-05-04T05:05:46.369Z,99.90
2019-05-04T05:08:18.168Z,99.90
2019-05-04T05:10:47.521Z,99.90
2019-05-04T05:13:20.725Z,99.90
2019-05-04T05:15:50.150Z,99.90
2019-05-04T05:18:19.547Z,99.90
2019-05-04T05:21:02.717Z,99.90
2019-05-04T05:23:32.320Z,99.90
2019-05-04T05:26:01.704Z,99.90
2019-05-04T05:28:31.088Z,99.90
2019-05-04T05:31:05.337Z,99.90
2019-05-04T05:33:47.446Z,99.90
2019-05-04T05:36:18.564Z,99.90
2019-05-04T05:38:57.365Z,99.90
2019-05-04T05:41:27.756Z,99.90
2019-05-04T05:43:59.263Z,99.90
2019-05-04T05:46:39.980Z,99.90
2019-05-04T05:49:36.127Z,99.90
2019-05-04T05:52:24.617Z,99.90
2019-05-04T05:55:17.656Z,99.90
2019-05-04T05:57:59.648Z,99.90
2019-05-04T06:00:49.066Z,99.90
2019-05-04T06:03:42.516Z,99.90
2019-05-04T06:06:20.831Z,99.90
2019-05-04T06:08:49.044Z,99.90
2019-05-04T06:11:20.068Z,99.90
2019-05-04T06:14:01.021Z,99.90
2019-05-04T06:17:02.113Z,99.90
2019-05-04T06:19:42.173Z,99.90
2019-05-04T06:57:39.383Z,92.30
2019-05-04T06:59:57.636Z,94.30
2019-05-04T07:02:24.862Z,93.50
2019-05-04T07:04:54.951Z,88.50
2019-05-04T07:07:26.267Z,85.90
2019-05-04T07:10:00.171Z,85.10
2019-05-04T07:12:30.520Z,87.00
2019-05-04T07:14:59.999Z,87.40
2019-05-04T07:17:29.622Z,82.10
2019-05-04T07:20:01.764Z,90.00
2019-05-04T07:22:39.172Z,90.00
2019-05-04T07:25:01.759Z,90.10
2019-05-04T07:27:34.647Z,87.30
2019-05-04T07:30:04.578Z,84.90
2019-05-04T07:32:38.433Z,83.80
2019-05-04T07:35:06.448Z,80.10
2019-05-04T07:37:51.500Z,82.70
2019-05-04T07:40:44.883Z,85.40
2019-05-04T07:43:15.488Z,90.40
2019-05-04T07:45:45.401Z,90.50
2019-05-04T07:48:16.600Z,90.20
2019-05-04T07:50:46.219Z,90.30
2019-05-04T07:53:17.168Z,90.90
2019-05-04T07:55:47.730Z,90.20
2019-05-04T07:58:19.175Z,88.70
2019-05-04T08:00:49.729Z,90.10
2019-05-04T08:03:27.424Z,86.00
2019-05-04T08:05:52.076Z,85.20
2019-05-04T08:08:24.641Z,82.30
2019-05-04T08:10:54.582Z,75.40
2019-05-04T08:13:26.122Z,76.90
2019-05-04T08:15:56.146Z,78.50
2019-05-04T08:18:27.748Z,85.70
2019-05-04T08:21:02.580Z,91.20
2019-05-04T08:23:35.983Z,92.40
2019-05-04T08:26:04.363Z,95.90
2019-05-04T08:28:35.414Z,98.30
2019-05-04T08:31:05.265Z,99.00
2019-05-04T08:33:34.986Z,99.20
2019-05-04T08:36:09.221Z,98.30
2019-05-04T08:38:36.429Z,98.20
2019-05-04T08:41:05.819Z,97.60
2019-05-04T08:43:35.207Z,98.60
2019-05-04T08:46:14.568Z,98.50
2019-05-04T08:48:45.310Z,98.60
2019-05-04T08:51:43.612Z,99.00
2019-05-04T08:54:10.865Z,96.80
2019-05-04T08:57:02.683Z,92.90
2019-05-04T08:59:36.987Z,90.80
2019-05-04T09:02:35.538Z,83.90
2019-05-04T09:05:05.163Z,78.10
2019-05-04T09:07:35.416Z,84.30
2019-05-04T09:10:09.362Z,88.20
2019-05-04T09:12:42.761Z,92.70
2019-05-04T09:15:13.516Z,96.10
2019-05-04T09:17:42.938Z,97.90
2019-05-04T09:20:12.428Z,97.30
2019-05-04T09:22:47.049Z,94.70
2019-05-04T09:25:14.877Z,92.20
2019-05-04T09:27:47.740Z,93.30
2019-05-04T09:30:20.410Z,93.90
2019-05-04T09:32:48.672Z,95.40
2019-05-04T09:35:18.749Z,97.10
2019-05-04T09:37:49.579Z,98.10
2019-05-04T09:40:19.453Z,97.70
2019-05-04T09:42:54.701Z,98.00
2019-05-04T09:45:28.958Z,98.50
2019-05-04T09:48:06.545Z,96.90
2019-05-04T09:50:32.492Z,97.20
2019-05-04T09:53:17.491Z,96.40
2019-05-04T09:55:40.361Z,97.30
2019-05-04T09:58:24.546Z,99.70
2019-05-04T10:00:51.621Z,99.90
2019-05-04T10:03:22.412Z,99.90
2019-05-04T10:05:55.411Z,99.90
2019-05-04T10:08:25.296Z,99.90
2019-05-04T10:11:01.518Z,99.90
2019-05-04T10:13:38.532Z,99.90
2019-05-04T10:16:30.532Z,99.60
2019-05-04T10:19:04.077Z,96.10
2019-05-04T10:21:36.702Z,97.20
2019-05-04T10:24:06.052Z,96.70
2019-05-04T10:26:46.633Z,98.60
2019-05-04T10:29:17.336Z,99.90
2019-05-04T10:31:46.860Z,99.90
2019-05-04T10:34:17.994Z,99.90
2019-05-04T10:36:48.284Z,99.90
2019-05-04T10:39:18.073Z,99.90
2019-05-04T10:41:47.767Z,99.90
2019-05-04T10:44:19.044Z,99.90
2019-05-04T10:46:49.314Z,99.90
2019-05-04T10:49:21.103Z,99.90
2019-05-04T10:51:55.128Z,99.00
2019-05-04T10:54:25.303Z,98.60
2019-05-04T10:56:55.141Z,97.00
2019-05-04T10:59:25.131Z,96.40
2019-05-04T11:01:57.354Z,96.00
2019-05-04T11:04:26.672Z,95.90
2019-05-04T11:06:56.112Z,95.60
2019-05-04T11:09:25.505Z,94.70
2019-05-04T11:11:54.936Z,95.00
2019-05-04T11:14:24.942Z,94.50
2019-05-04T11:16:56.913Z,93.80
2019-05-04T11:19:28.128Z,94.50
2019-05-04T11:21:57.870Z,92.50
2019-05-04T11:24:27.673Z,92.10
2019-05-04T11:27:01.747Z,92.90
2019-05-04T11:29:32.166Z,92.60
2019-05-04T11:32:02.726Z,93.70
2019-05-04T11:34:34.290Z,93.50
2019-05-04T11:37:05.013Z,93.90
2019-05-04T11:39:34.688Z,94.10
2019-05-04T11:42:05.195Z,95.40
2019-05-04T11:44:35.589Z,91.50
2019-05-04T11:47:08.510Z,91.20
2019-05-04T11:49:39.545Z,93.10
2019-05-04T11:52:10.664Z,95.10
2019-05-04T11:54:40.028Z,95.50
2019-05-04T11:57:09.768Z,94.30
2019-05-04T11:59:39.157Z,93.40
2019-05-04T12:02:08.613Z,93.40
2019-05-04T12:05:08.322Z,93.20
2019-05-04T12:07:48.344Z,96.60
2019-05-04T12:10:27.391Z,98.20
2019-05-04T12:12:57.732Z,98.40
2019-05-04T12:15:27.791Z,97.90
2019-05-04T12:17:57.412Z,98.40
2019-05-04T12:20:27.535Z,98.40
2019-05-04T12:22:57.240Z,99.10
2019-05-04T12:25:28.356Z,99.00
2019-05-04T12:27:57.773Z,98.80
2019-05-04T12:30:27.153Z,98.90
2019-05-04T12:32:57.306Z,98.00
2019-05-04T12:35:28.709Z,99.20
2019-05-04T12:37:58.826Z,97.80
2019-05-04T12:40:31.798Z,98.50
2019-05-04T12:43:03.525Z,99.90
2019-05-04T12:45:34.298Z,99.90
2019-05-04T12:48:04.913Z,99.90
2019-05-04T12:50:35.808Z,99.60
2019-05-04T12:53:05.888Z,99.90
2019-05-04T12:55:35.627Z,99.90
2019-05-04T12:58:06.647Z,99.90
2019-05-04T13:00:36.560Z,99.90
2019-05-04T13:03:06.222Z,99.90
2019-05-04T13:05:39.707Z,99.90
2019-05-04T13:08:10.906Z,99.90
2019-05-04T13:10:40.259Z,99.90
2019-05-04T13:13:15.137Z,99.90
2019-05-04T13:15:45.998Z,99.90
2019-05-04T13:18:35.293Z,99.90
2019-05-04T13:21:05.467Z,99.90
2019-05-04T13:23:35.472Z,99.90
2019-05-04T13:26:05.308Z,99.90
2019-05-04T13:28:35.041Z,99.90
2019-05-04T13:31:05.935Z,99.90
2019-05-04T13:33:35.280Z,99.90
2019-05-04T13:36:05.369Z,99.90
2019-05-04T13:38:34.696Z,99.90
2019-05-04T13:41:04.256Z,99.90
2019-05-04T13:43:34.565Z,99.90
2019-05-04T13:46:04.281Z,99.90
2019-05-04T13:48:34.940Z,99.90
2019-05-04T13:51:04.620Z,99.90
2019-05-04T13:53:35.180Z,99.90
2019-05-04T13:56:19.560Z,99.90
2019-05-04T13:59:11.828Z,99.90
2019-05-04T14:01:49.968Z,99.90
2019-05-04T14:04:28.241Z,99.90
2019-05-04T14:06:57.684Z,99.90
2019-05-04T14:09:27.289Z,99.90
2019-05-04T14:11:57.339Z,99.90
2019-05-04T14:14:27.627Z,99.90
2019-05-04T14:16:57.364Z,99.90
2019-05-04T14:19:27.283Z,99.90
2019-05-04T14:21:56.689Z,99.90
2019-05-04T14:24:26.109Z,99.90
2019-05-04T14:26:56.565Z,99.90
2019-05-04T14:29:26.253Z,99.90
2019-05-04T14:31:56.874Z,99.90
2019-05-04T14:34:29.417Z,99.90
2019-05-04T14:36:58.754Z,99.90
2019-05-04T14:39:28.640Z,99.90
2019-05-04T14:41:59.651Z,99.90
2019-05-04T14:45:00.855Z,99.90
2019-05-04T14:47:38.468Z,99.90
2019-05-04T14:50:07.907Z,99.90
2019-05-04T14:52:38.308Z,99.90
2019-05-04T14:55:08.425Z,99.90
2019-05-04T14:57:37.907Z,99.90
2019-05-04T15:00:09.768Z,99.90
2019-05-04T15:02:39.118Z,99.90
2019-05-04T15:05:11.596Z,99.90
2019-05-04T15:07:41.716Z,99.90
2019-05-04T15:10:11.474Z,99.90
2019-05-04T15:12:41.907Z,99.90
2019-05-04T15:15:13.759Z,99.90
2019-05-04T15:17:43.388Z,99.90
2019-05-04T15:20:24.559Z,99.90
2019-05-04T15:22:55.504Z,99.90
2019-05-04T15:25:26.010Z,99.90
2019-05-04T15:27:55.819Z,99.90
2019-05-04T15:30:27.704Z,99.90
2019-05-04T15:32:57.076Z,99.90
2019-05-04T15:35:26.744Z,99.90
2019-05-04T15:37:56.200Z,99.90
2019-05-04T15:40:25.589Z,99.90
2019-05-04T15:42:56.457Z,99.90
2019-05-04T15:45:30.619Z,99.90
2019-05-04T15:48:09.133Z,99.90
2019-05-04T15:50:57.452Z,99.90
2019-05-04T15:53:46.274Z,99.90
2019-05-04T15:56:48.249Z,99.90
2019-05-04T15:59:25.153Z,99.90
2019-05-04T16:01:55.489Z,99.90
2019-05-04T16:04:27.975Z,99.90
2019-05-04T16:06:58.324Z,99.90
2019-05-04T16:09:31.789Z,99.90
2019-05-04T16:12:04.190Z,99.90
2019-05-04T16:14:48.921Z,99.90
2019-05-04T16:17:08.728Z,99.90
2019-05-04T16:19:38.502Z,99.90
2019-05-04T16:22:10.238Z,99.90
2019-05-04T16:24:39.673Z,99.90
2019-05-04T16:27:10.973Z,99.90
2019-05-04T16:29:40.721Z,99.90
2019-05-04T16:32:10.386Z,99.90
2019-05-04T16:34:40.338Z,99.90
2019-05-04T16:37:12.270Z,99.90
2019-05-04T16:39:44.978Z,99.90
2019-05-04T16:42:14.775Z,99.90
2019-05-04T16:44:45.279Z,99.90
2019-05-04T16:47:17.183Z,99.90
2019-05-04T16:49:47.802Z,99.90
2019-05-04T16:52:45.432Z,99.90
2019-05-04T16:55:17.178Z,99.90
2019-05-04T16:57:46.561Z,99.90
2019-05-04T17:00:25.001Z,99.90
2019-05-04T17:03:00.532Z,99.90
2019-05-04T17:05:30.033Z,99.90
2019-05-04T17:07:59.716Z,99.90
2019-05-04T17:10:29.819Z,99.90
2019-05-04T17:12:59.608Z,99.90
2019-05-04T17:15:30.224Z,99.90
2019-05-04T17:17:59.805Z,99.90
2019-05-04T17:20:31.248Z,99.90
2019-05-04T17:23:00.933Z,99.90
2019-05-04T17:25:47.643Z,99.90
2019-05-04T17:28:21.461Z,99.90
2019-05-04T17:31:09.124Z,99.90
2019-05-04T17:33:38.978Z,99.90
2019-05-04T17:36:10.295Z,99.90
2019-05-04T17:38:40.041Z,99.90
2019-05-04T17:41:25.181Z,99.90
2019-05-04T17:44:12.053Z,99.90
2019-05-04T17:47:10.987Z,99.90
2019-05-04T17:49:40.923Z,99.90
2019-05-04T17:52:11.940Z,99.90
2019-05-04T17:54:41.925Z,99.90
2019-05-04T17:57:11.749Z,99.90
2019-05-04T18:00:00.110Z,99.90
2019-05-04T18:02:35.852Z,99.90
2019-05-04T18:05:08.195Z,99.90
2019-05-04T18:07:44.154Z,99.90
2019-05-04T18:10:15.413Z,99.90
2019-05-04T18:13:00.984Z,99.90
2019-05-04T18:15:40.769Z,99.90
2019-05-04T18:18:32.233Z,99.90
2019-05-04T18:21:04.631Z,99.90
2019-05-04T18:23:35.885Z,99.90
2019-05-04T18:26:05.957Z,99.90
2019-05-04T18:28:35.687Z,99.90
2019-05-04T18:31:05.393Z,99.90
2019-05-04T18:33:36.316Z,99.90
2019-05-04T18:36:06.883Z,99.90
2019-05-04T18:38:36.657Z,99.90
2019-05-04T18:41:08.229Z,99.90
2019-05-04T18:44:14.781Z,99.90
2019-05-04T18:46:58.865Z,99.90
2019-05-04T18:49:30.109Z,99.90
2019-05-04T18:52:00.328Z,99.90
2019-05-04T18:54:30.381Z,99.90
2019-05-04T18:57:01.299Z,99.90
2019-05-04T18:59:31.371Z,99.90
2019-05-04T19:02:05.196Z,99.90
2019-05-04T19:04:35.437Z,99.90
2019-05-04T19:07:25.326Z,99.90
2019-05-04T19:09:58.940Z,99.90
2019-05-04T19:12:31.151Z,99.90
2019-05-04T19:15:01.596Z,99.90
2019-05-04T19:17:33.066Z,99.90
2019-05-04T19:20:02.754Z,99.90
2019-05-04T19:22:34.455Z,99.90
2019-05-04T19:25:15.520Z,99.90
2019-05-04T19:27:45.915Z,99.90
2019-05-04T19:30:20.334Z,99.90
2019-05-04T19:32:55.274Z,99.90
2019-05-04T19:35:35.309Z,99.90
2019-05-04T19:38:05.801Z,99.90
2019-05-04T19:40:39.271Z,99.90
2019-05-04T19:43:31.310Z,99.90
2019-05-04T19:46:33.871Z,99.90
2019-05-04T19:49:07.505Z,99.90
2019-05-04T19:51:38.285Z,99.90
2019-05-04T19:54:07.653Z,99.90
2019-05-04T19:56:37.096Z,99.90
2019-05-04T19:59:06.467Z,99.90
2019-05-04T20:01:40.135Z,99.90
2019-05-04T20:04:10.999Z,99.90
2019-05-04T20:07:04.694Z,99.90
2019-05-04T20:09:59.256Z,99.90
2019-05-04T20:12:35.724Z,99.90
2019-05-04T20:15:19.525Z,99.90
2019-05-04T20:17:45.056Z,99.90
2019-05-04T20:20:17.045Z,99.90
2019-05-04T20:22:46.657Z,99.90
2019-05-04T20:25:19.788Z,99.90
2019-05-04T20:27:51.693Z,99.90
2019-05-04T20:30:21.977Z,99.90
2019-05-04T20:32:51.414Z,99.90
2019-05-04T20:35:24.552Z,99.90
2019-05-04T20:37:53.541Z,99.90
2019-05-04T20:40:25.242Z,99.90
2019-05-04T20:42:55.167Z,99.90
2019-05-04T20:45:34.586Z,99.90
2019-05-04T20:48:36.642Z,99.90
2019-05-04T20:51:06.496Z,99.90
2019-05-04T20:53:45.074Z,99.90
2019-05-04T20:56:18.993Z,99.90
2019-05-04T20:58:49.273Z,99.90
2019-05-04T21:01:19.795Z,99.90
2019-05-04T21:04:00.899Z,99.90
2019-05-04T21:06:45.299Z,99.90
2019-05-04T21:09:16.704Z,99.90
2019-05-04T21:11:48.760Z,99.90
2019-05-04T21:14:21.921Z,99.90
2019-05-04T21:16:57.824Z,99.90
2019-05-04T21:19:45.420Z,99.90
2019-05-04T21:22:15.569Z,99.90
2019-05-04T21:24:45.741Z,99.90
2019-05-04T21:27:17.638Z,99.90
2019-05-04T21:29:47.314Z,99.90
2019-05-04T21:32:18.082Z,99.90
2019-05-04T21:34:51.295Z,99.90
2019-05-04T21:37:21.031Z,99.90
2019-05-04T21:39:50.308Z,99.90
2019-05-04T21:42:22.193Z,99.90
2019-05-04T21:45:01.050Z,99.90
2019-05-04T21:47:49.793Z,99.90
2019-05-04T21:50:41.644Z,99.90
2019-05-04T21:53:14.595Z,99.90
2019-05-04T21:55:44.365Z,99.90
2019-05-04T21:58:16.320Z,99.90
2019-05-04T22:01:04.681Z,99.90
2019-05-04T22:04:00.618Z,99.90
2019-05-04T22:06:31.276Z,99.90
2019-05-04T22:09:02.217Z,99.90
2019-05-04T22:11:35.713Z,99.90
2019-05-04T22:14:06.518Z,99.90
2019-05-04T22:16:37.683Z,99.90
2019-05-04T22:19:11.733Z,99.90
2019-05-04T22:21:41.216Z,99.90
2019-05-04T22:24:14.670Z,99.90
2019-05-04T22:26:45.630Z,99.90
2019-05-04T22:29:18.224Z,99.90
2019-05-04T22:31:47.536Z,99.90
2019-05-04T22:34:22.405Z,99.90
2019-05-04T22:37:14.587Z,99.90
2019-05-04T22:39:44.017Z,99.90
2019-05-04T22:42:14.737Z,99.90
2019-05-04T22:44:45.243Z,99.90
2019-05-04T22:47:16.997Z,99.90
2019-05-04T22:49:46.728Z,99.90
2019-05-04T22:52:30.248Z,99.90
2019-05-04T22:55:14.959Z,99.90
2019-05-04T22:57:50.664Z,99.90
2019-05-04T23:00:39.606Z,99.90
2019-05-04T23:03:11.105Z,99.90
2019-05-04T23:05:41.030Z,99.90
2019-05-04T23:08:10.360Z,99.90
2019-05-04T23:10:54.698Z,99.90
2019-05-04T23:13:25.184Z,99.90
2019-05-04T23:15:55.525Z,99.90
2019-05-04T23:18:25.612Z,99.90
2019-05-04T23:20:55.229Z,99.90
2019-05-04T23:23:25.728Z,99.90
2019-05-04T23:25:59.921Z,99.90
2019-05-04T23:28:30.125Z,99.90
2019-05-04T23:30:59.819Z,99.90
2019-05-04T23:33:29.428Z,99.90
2019-05-04T23:35:59.517Z,99.90
2019-05-04T23:38:28.888Z,99.90
2019-05-04T23:40:59.233Z,99.90
2019-05-04T23:43:28.593Z,99.90
2019-05-04T23:45:58.012Z,99.90
2019-05-04T23:48:27.456Z,99.90
2019-05-04T23:50:59.520Z,99.90
2019-05-04T23:53:29.213Z,99.90
2019-05-04T23:55:59.191Z,99.90
2019-05-04T23:58:41.744Z,99.90
